sensor_id;sensor_type;location;lat;lon;timestamp;P1;durP1;ratioP1;P2;durP2;ratioP2
6292;SDS011;3179;54.350;10.102;2023-11-21T00:00:49;3.70;;;3.27;;
6292;SDS011;3179;54.350;10.102;2023-11-21T00:03:16;3.50;;;3.17;;
6292;SDS011;3179;54.350;10.102;2023-11-21T00:05:44;3.23;;;2.93;;
6292;SDS011;3179;54.350;10.102;2023-11-21T00:08:11;4.73;;;3.80;;
6292;SDS011;3179;54.350;10.102;2023-11-21T00:10:37;4.57;;;3.50;;
6292;SDS011;3179;54.350;10.102;2023-11-21T00:13:04;4.30;;;3.27;;
6292;SDS011;3179;54.350;10.102;2023-11-21T00:15:32;4.00;;;3.20;;
6292;SDS011;3179;54.350;10.102;2023-11-21T00:17:59;5.67;;;3.70;;
6292;SDS011;3179;54.350;10.102;2023-11-21T00:20:26;5.00;;;3.80;;
6292;SDS011;3179;54.350;10.102;2023-11-21T00:22:53;3.90;;;3.10;;
6292;SDS011;3179;54.350;10.102;2023-11-21T00:25:19;4.20;;;3.17;;
6292;SDS011;3179;54.350;10.102;2023-11-21T00:27:46;5.30;;;3.80;;
6292;SDS011;3179;54.350;10.102;2023-11-21T00:30:13;3.67;;;3.37;;
6292;SDS011;3179;54.350;10.102;2023-11-21T00:32:42;4.13;;;3.70;;
6292;SDS011;3179;54.350;10.102;2023-11-21T00:35:10;3.70;;;3.40;;
6292;SDS011;3179;54.350;10.102;2023-11-21T00:37:36;8.20;;;3.80;;
6292;SDS011;3179;54.350;10.102;2023-11-21T00:40:04;4.67;;;3.67;;
6292;SDS011;3179;54.350;10.102;2023-11-21T00:42:32;4.93;;;4.37;;
6292;SDS011;3179;54.350;10.102;2023-11-21T00:44:59;4.17;;;3.63;;
6292;SDS011;3179;54.350;10.102;2023-11-21T00:47:26;4.50;;;3.90;;
6292;SDS011;3179;54.350;10.102;2023-11-21T00:49:54;4.63;;;4.17;;
6292;SDS011;3179;54.350;10.102;2023-11-21T00:52:22;5.20;;;4.13;;
6292;SDS011;3179;54.350;10.102;2023-11-21T00:54:48;10.23;;;4.00;;
6292;SDS011;3179;54.350;10.102;2023-11-21T00:57:15;5.07;;;4.27;;
6292;SDS011;3179;54.350;10.102;2023-11-21T00:59:42;5.43;;;4.20;;
6292;SDS011;3179;54.350;10.102;2023-11-21T01:02:09;7.97;;;5.37;;
6292;SDS011;3179;54.350;10.102;2023-11-21T01:04:36;10.87;;;4.53;;
6292;SDS011;3179;54.350;10.102;2023-11-21T01:07:04;4.90;;;4.00;;
6292;SDS011;3179;54.350;10.102;2023-11-21T01:09:31;5.50;;;4.00;;
6292;SDS011;3179;54.350;10.102;2023-11-21T01:11:58;7.80;;;4.90;;
6292;SDS011;3179;54.350;10.102;2023-11-21T01:14:25;3.80;;;3.40;;
6292;SDS011;3179;54.350;10.102;2023-11-21T01:16:53;5.00;;;4.10;;
6292;SDS011;3179;54.350;10.102;2023-11-21T01:19:19;5.00;;;4.50;;
6292;SDS011;3179;54.350;10.102;2023-11-21T01:21:46;4.30;;;3.80;;
6292;SDS011;3179;54.350;10.102;2023-11-21T01:24:14;5.10;;;4.03;;
6292;SDS011;3179;54.350;10.102;2023-11-21T01:26:41;4.53;;;4.10;;
6292;SDS011;3179;54.350;10.102;2023-11-21T01:29:08;4.40;;;3.93;;
6292;SDS011;3179;54.350;10.102;2023-11-21T01:31:35;6.63;;;4.37;;
6292;SDS011;3179;54.350;10.102;2023-11-21T01:34:02;3.90;;;3.60;;
6292;SDS011;3179;54.350;10.102;2023-11-21T01:36:30;5.27;;;4.37;;
6292;SDS011;3179;54.350;10.102;2023-11-21T01:38:58;6.50;;;4.60;;
6292;SDS011;3179;54.350;10.102;2023-11-21T01:41:26;5.17;;;4.60;;
6292;SDS011;3179;54.350;10.102;2023-11-21T01:43:53;4.43;;;3.97;;
6292;SDS011;3179;54.350;10.102;2023-11-21T01:46:20;5.50;;;4.57;;
6292;SDS011;3179;54.350;10.102;2023-11-21T01:48:48;4.77;;;4.33;;
6292;SDS011;3179;54.350;10.102;2023-11-21T01:51:15;4.87;;;4.23;;
6292;SDS011;3179;54.350;10.102;2023-11-21T01:53:43;5.20;;;3.80;;
6292;SDS011;3179;54.350;10.102;2023-11-21T01:56:10;5.20;;;4.30;;
6292;SDS011;3179;54.350;10.102;2023-11-21T01:58:38;7.67;;;4.50;;
6292;SDS011;3179;54.350;10.102;2023-11-21T02:01:06;4.20;;;3.80;;
6292;SDS011;3179;54.350;10.102;2023-11-21T02:03:33;5.10;;;4.13;;
6292;SDS011;3179;54.350;10.102;2023-11-21T02:06:00;3.60;;;3.30;;
6292;SDS011;3179;54.350;10.102;2023-11-21T02:08:27;4.60;;;3.80;;
6292;SDS011;3179;54.350;10.102;2023-11-21T02:10:54;5.10;;;4.03;;
6292;SDS011;3179;54.350;10.102;2023-11-21T02:13:22;4.13;;;3.20;;
6292;SDS011;3179;54.350;10.102;2023-11-21T02:15:50;4.33;;;3.20;;
6292;SDS011;3179;54.350;10.102;2023-11-21T02:18:19;3.97;;;3.40;;
6292;SDS011;3179;54.350;10.102;2023-11-21T02:20:47;5.30;;;3.83;;
6292;SDS011;3179;54.350;10.102;2023-11-21T02:23:15;4.50;;;3.63;;
6292;SDS011;3179;54.350;10.102;2023-11-21T02:25:43;3.50;;;3.20;;
6292;SDS011;3179;54.350;10.102;2023-11-21T02:28:09;3.97;;;3.60;;
6292;SDS011;3179;54.350;10.102;2023-11-21T02:30:37;4.30;;;3.80;;
6292;SDS011;3179;54.350;10.102;2023-11-21T02:33:04;4.07;;;3.70;;
6292;SDS011;3179;54.350;10.102;2023-11-21T02:35:32;4.00;;;3.60;;
6292;SDS011;3179;54.350;10.102;2023-11-21T02:37:59;4.53;;;4.13;;
6292;SDS011;3179;54.350;10.102;2023-11-21T02:40:28;4.93;;;4.00;;
6292;SDS011;3179;54.350;10.102;2023-11-21T02:42:55;4.57;;;4.10;;
6292;SDS011;3179;54.350;10.102;2023-11-21T02:45:24;4.60;;;4.20;;
6292;SDS011;3179;54.350;10.102;2023-11-21T02:47:51;6.63;;;4.27;;
6292;SDS011;3179;54.350;10.102;2023-11-21T02:50:21;4.90;;;4.40;;
6292;SDS011;3179;54.350;10.102;2023-11-21T02:52:48;5.37;;;4.80;;
6292;SDS011;3179;54.350;10.102;2023-11-21T02:55:16;5.43;;;4.60;;
6292;SDS011;3179;54.350;10.102;2023-11-21T02:57:45;6.00;;;4.13;;
6292;SDS011;3179;54.350;10.102;2023-11-21T03:00:12;5.30;;;4.50;;
6292;SDS011;3179;54.350;10.102;2023-11-21T03:02:40;5.10;;;4.10;;
6292;SDS011;3179;54.350;10.102;2023-11-21T03:05:07;4.80;;;4.17;;
6292;SDS011;3179;54.350;10.102;2023-11-21T03:07:34;4.50;;;4.10;;
6292;SDS011;3179;54.350;10.102;2023-11-21T03:10:02;5.00;;;4.50;;
6292;SDS011;3179;54.350;10.102;2023-11-21T03:12:30;4.70;;;3.50;;
6292;SDS011;3179;54.350;10.102;2023-11-21T03:14:58;5.03;;;3.53;;
6292;SDS011;3179;54.350;10.102;2023-11-21T03:17:24;3.83;;;3.53;;
6292;SDS011;3179;54.350;10.102;2023-11-21T03:19:51;4.20;;;3.70;;
6292;SDS011;3179;54.350;10.102;2023-11-21T03:22:18;3.57;;;3.27;;
6292;SDS011;3179;54.350;10.102;2023-11-21T03:24:45;3.67;;;3.23;;
6292;SDS011;3179;54.350;10.102;2023-11-21T03:27:12;4.00;;;3.70;;
6292;SDS011;3179;54.350;10.102;2023-11-21T03:29:38;4.60;;;3.73;;
6292;SDS011;3179;54.350;10.102;2023-11-21T03:32:07;3.80;;;3.50;;
6292;SDS011;3179;54.350;10.102;2023-11-21T03:34:33;3.37;;;3.07;;
6292;SDS011;3179;54.350;10.102;2023-11-21T03:37:00;4.77;;;3.33;;
6292;SDS011;3179;54.350;10.102;2023-11-21T03:39:27;5.43;;;3.03;;
6292;SDS011;3179;54.350;10.102;2023-11-21T03:41:54;5.40;;;2.63;;
6292;SDS011;3179;54.350;10.102;2023-11-21T03:44:21;2.70;;;2.50;;
6292;SDS011;3179;54.350;10.102;2023-11-21T03:46:48;3.53;;;2.57;;
6292;SDS011;3179;54.350;10.102;2023-11-21T03:49:16;11.53;;;2.70;;
6292;SDS011;3179;54.350;10.102;2023-11-21T03:51:43;2.90;;;2.13;;
6292;SDS011;3179;54.350;10.102;2023-11-21T03:54:09;4.00;;;2.70;;
6292;SDS011;3179;54.350;10.102;2023-11-21T03:56:36;2.87;;;2.50;;
6292;SDS011;3179;54.350;10.102;2023-11-21T03:59:03;2.20;;;1.97;;
6292;SDS011;3179;54.350;10.102;2023-11-21T04:01:31;3.60;;;2.20;;
6292;SDS011;3179;54.350;10.102;2023-11-21T04:03:58;2.87;;;2.13;;
6292;SDS011;3179;54.350;10.102;2023-11-21T04:06:26;3.47;;;2.37;;
6292;SDS011;3179;54.350;10.102;2023-11-21T04:08:52;2.13;;;1.93;;
6292;SDS011;3179;54.350;10.102;2023-11-21T04:11:19;2.70;;;2.40;;
6292;SDS011;3179;54.350;10.102;2023-11-21T04:13:46;2.10;;;1.90;;
6292;SDS011;3179;54.350;10.102;2023-11-21T04:16:13;5.73;;;2.10;;
6292;SDS011;3179;54.350;10.102;2023-11-21T04:18:40;2.50;;;2.30;;
6292;SDS011;3179;54.350;10.102;2023-11-21T04:21:06;3.23;;;2.03;;
6292;SDS011;3179;54.350;10.102;2023-11-21T04:23:35;2.20;;;2.00;;
6292;SDS011;3179;54.350;10.102;2023-11-21T04:26:02;2.83;;;2.30;;
6292;SDS011;3179;54.350;10.102;2023-11-21T04:28:29;2.23;;;2.03;;
6292;SDS011;3179;54.350;10.102;2023-11-21T04:30:55;3.57;;;1.90;;
6292;SDS011;3179;54.350;10.102;2023-11-21T04:33:22;3.97;;;2.40;;
6292;SDS011;3179;54.350;10.102;2023-11-21T04:35:50;3.93;;;2.60;;
6292;SDS011;3179;54.350;10.102;2023-11-21T04:38:17;3.97;;;2.00;;
6292;SDS011;3179;54.350;10.102;2023-11-21T04:40:45;6.50;;;2.10;;
6292;SDS011;3179;54.350;10.102;2023-11-21T04:43:12;1.80;;;1.70;;
6292;SDS011;3179;54.350;10.102;2023-11-21T04:45:39;2.53;;;1.93;;
6292;SDS011;3179;54.350;10.102;2023-11-21T04:48:06;2.43;;;2.23;;
6292;SDS011;3179;54.350;10.102;2023-11-21T04:50:33;3.33;;;2.20;;
6292;SDS011;3179;54.350;10.102;2023-11-21T04:53:00;2.77;;;1.90;;
6292;SDS011;3179;54.350;10.102;2023-11-21T04:55:27;5.30;;;2.07;;
6292;SDS011;3179;54.350;10.102;2023-11-21T04:57:55;3.03;;;1.50;;
6292;SDS011;3179;54.350;10.102;2023-11-21T05:00:22;2.83;;;2.53;;
6292;SDS011;3179;54.350;10.102;2023-11-21T05:02:49;2.67;;;2.23;;
6292;SDS011;3179;54.350;10.102;2023-11-21T05:05:15;4.37;;;2.57;;
6292;SDS011;3179;54.350;10.102;2023-11-21T05:07:42;2.10;;;1.90;;
6292;SDS011;3179;54.350;10.102;2023-11-21T05:10:09;3.20;;;2.07;;
6292;SDS011;3179;54.350;10.102;2023-11-21T05:12:37;2.97;;;1.80;;
6292;SDS011;3179;54.350;10.102;2023-11-21T05:15:06;2.70;;;1.90;;
6292;SDS011;3179;54.350;10.102;2023-11-21T05:17:35;2.60;;;2.27;;
6292;SDS011;3179;54.350;10.102;2023-11-21T05:20:02;3.80;;;2.17;;
6292;SDS011;3179;54.350;10.102;2023-11-21T05:22:33;2.53;;;2.33;;
6292;SDS011;3179;54.350;10.102;2023-11-21T05:25:00;2.97;;;2.33;;
6292;SDS011;3179;54.350;10.102;2023-11-21T05:27:28;3.37;;;2.20;;
6292;SDS011;3179;54.350;10.102;2023-11-21T05:29:54;3.10;;;1.83;;
6292;SDS011;3179;54.350;10.102;2023-11-21T05:32:22;3.13;;;2.50;;
6292;SDS011;3179;54.350;10.102;2023-11-21T05:34:49;2.50;;;2.30;;
6292;SDS011;3179;54.350;10.102;2023-11-21T05:37:16;2.43;;;1.83;;
6292;SDS011;3179;54.350;10.102;2023-11-21T05:39:43;3.10;;;2.20;;
6292;SDS011;3179;54.350;10.102;2023-11-21T05:42:10;2.13;;;1.93;;
6292;SDS011;3179;54.350;10.102;2023-11-21T05:44:37;1.60;;;1.50;;
6292;SDS011;3179;54.350;10.102;2023-11-21T05:47:07;2.23;;;2.03;;
6292;SDS011;3179;54.350;10.102;2023-11-21T05:49:35;2.80;;;2.00;;
6292;SDS011;3179;54.350;10.102;2023-11-21T05:52:02;3.30;;;2.10;;
6292;SDS011;3179;54.350;10.102;2023-11-21T05:54:30;3.03;;;2.10;;
6292;SDS011;3179;54.350;10.102;2023-11-21T05:56:57;2.90;;;2.10;;
6292;SDS011;3179;54.350;10.102;2023-11-21T05:59:23;4.20;;;2.60;;
6292;SDS011;3179;54.350;10.102;2023-11-21T06:01:50;2.90;;;2.60;;
6292;SDS011;3179;54.350;10.102;2023-11-21T06:04:17;2.57;;;2.37;;
6292;SDS011;3179;54.350;10.102;2023-11-21T06:06:45;6.13;;;2.67;;
6292;SDS011;3179;54.350;10.102;2023-11-21T06:09:12;2.40;;;2.13;;
6292;SDS011;3179;54.350;10.102;2023-11-21T06:11:39;1.93;;;1.83;;
6292;SDS011;3179;54.350;10.102;2023-11-21T06:14:05;3.07;;;2.40;;
6292;SDS011;3179;54.350;10.102;2023-11-21T06:16:34;3.07;;;2.57;;
6292;SDS011;3179;54.350;10.102;2023-11-21T06:19:01;2.67;;;2.47;;
6292;SDS011;3179;54.350;10.102;2023-11-21T06:21:28;2.70;;;2.50;;
6292;SDS011;3179;54.350;10.102;2023-11-21T06:23:56;3.73;;;2.50;;
6292;SDS011;3179;54.350;10.102;2023-11-21T06:26:23;3.87;;;3.13;;
6292;SDS011;3179;54.350;10.102;2023-11-21T06:28:50;5.57;;;2.67;;
6292;SDS011;3179;54.350;10.102;2023-11-21T06:31:18;3.97;;;2.60;;
6292;SDS011;3179;54.350;10.102;2023-11-21T06:33:46;2.50;;;2.30;;
6292;SDS011;3179;54.350;10.102;2023-11-21T06:36:13;3.03;;;2.70;;
6292;SDS011;3179;54.350;10.102;2023-11-21T06:38:40;3.10;;;2.50;;
6292;SDS011;3179;54.350;10.102;2023-11-21T06:41:08;3.90;;;2.73;;
6292;SDS011;3179;54.350;10.102;2023-11-21T06:43:35;3.20;;;2.67;;
6292;SDS011;3179;54.350;10.102;2023-11-21T06:46:02;2.90;;;2.70;;
6292;SDS011;3179;54.350;10.102;2023-11-21T06:48:29;5.80;;;2.53;;
6292;SDS011;3179;54.350;10.102;2023-11-21T06:50:56;4.13;;;3.13;;
6292;SDS011;3179;54.350;10.102;2023-11-21T06:53:23;4.70;;;3.13;;
6292;SDS011;3179;54.350;10.102;2023-11-21T06:55:49;3.00;;;2.50;;
6292;SDS011;3179;54.350;10.102;2023-11-21T06:58:17;3.90;;;2.20;;
6292;SDS011;3179;54.350;10.102;2023-11-21T07:00:44;4.40;;;3.37;;
6292;SDS011;3179;54.350;10.102;2023-11-21T07:03:13;3.83;;;3.07;;
6292;SDS011;3179;54.350;10.102;2023-11-21T07:05:40;7.17;;;3.17;;
6292;SDS011;3179;54.350;10.102;2023-11-21T07:08:07;3.53;;;3.00;;
6292;SDS011;3179;54.350;10.102;2023-11-21T07:10:34;3.10;;;2.80;;
6292;SDS011;3179;54.350;10.102;2023-11-21T07:13:01;3.80;;;3.03;;
6292;SDS011;3179;54.350;10.102;2023-11-21T07:15:29;3.23;;;2.73;;
6292;SDS011;3179;54.350;10.102;2023-11-21T07:17:56;5.43;;;2.63;;
6292;SDS011;3179;54.350;10.102;2023-11-21T07:20:23;4.40;;;3.50;;
6292;SDS011;3179;54.350;10.102;2023-11-21T07:22:50;3.73;;;3.10;;
6292;SDS011;3179;54.350;10.102;2023-11-21T07:25:17;6.07;;;3.20;;
6292;SDS011;3179;54.350;10.102;2023-11-21T07:27:43;5.00;;;2.80;;
6292;SDS011;3179;54.350;10.102;2023-11-21T07:30:12;4.50;;;3.23;;
6292;SDS011;3179;54.350;10.102;2023-11-21T07:32:41;3.83;;;3.20;;
6292;SDS011;3179;54.350;10.102;2023-11-21T07:35:08;5.80;;;2.60;;
6292;SDS011;3179;54.350;10.102;2023-11-21T07:37:35;3.17;;;2.87;;
6292;SDS011;3179;54.350;10.102;2023-11-21T07:40:01;3.77;;;3.17;;
6292;SDS011;3179;54.350;10.102;2023-11-21T07:42:28;4.03;;;3.40;;
6292;SDS011;3179;54.350;10.102;2023-11-21T07:44:55;3.83;;;2.80;;
6292;SDS011;3179;54.350;10.102;2023-11-21T07:47:22;3.43;;;3.13;;
6292;SDS011;3179;54.350;10.102;2023-11-21T07:49:53;3.83;;;3.47;;
6292;SDS011;3179;54.350;10.102;2023-11-21T07:52:21;3.73;;;3.37;;
6292;SDS011;3179;54.350;10.102;2023-11-21T07:54:49;3.53;;;3.13;;
6292;SDS011;3179;54.350;10.102;2023-11-21T07:57:15;3.77;;;3.40;;
6292;SDS011;3179;54.350;10.102;2023-11-21T07:59:43;4.27;;;2.80;;
6292;SDS011;3179;54.350;10.102;2023-11-21T08:02:09;3.23;;;3.03;;
6292;SDS011;3179;54.350;10.102;2023-11-21T08:04:36;3.43;;;3.10;;
6292;SDS011;3179;54.350;10.102;2023-11-21T08:07:04;3.37;;;3.07;;
6292;SDS011;3179;54.350;10.102;2023-11-21T08:09:31;4.23;;;3.10;;
6292;SDS011;3179;54.350;10.102;2023-11-21T08:11:59;3.47;;;3.17;;
6292;SDS011;3179;54.350;10.102;2023-11-21T08:14:27;3.53;;;2.87;;
6292;SDS011;3179;54.350;10.102;2023-11-21T08:16:54;2.63;;;2.33;;
6292;SDS011;3179;54.350;10.102;2023-11-21T08:19:22;3.50;;;3.20;;
6292;SDS011;3179;54.350;10.102;2023-11-21T08:21:50;3.10;;;2.80;;
6292;SDS011;3179;54.350;10.102;2023-11-21T08:24:20;3.53;;;3.20;;
6292;SDS011;3179;54.350;10.102;2023-11-21T08:26:47;3.37;;;2.60;;
6292;SDS011;3179;54.350;10.102;2023-11-21T08:29:14;2.80;;;2.60;;
6292;SDS011;3179;54.350;10.102;2023-11-21T08:31:41;8.50;;;3.30;;
6292;SDS011;3179;54.350;10.102;2023-11-21T08:34:09;3.80;;;2.70;;
6292;SDS011;3179;54.350;10.102;2023-11-21T08:36:36;2.30;;;2.20;;
6292;SDS011;3179;54.350;10.102;2023-11-21T08:39:07;2.70;;;2.50;;
6292;SDS011;3179;54.350;10.102;2023-11-21T08:41:36;4.03;;;3.00;;
6292;SDS011;3179;54.350;10.102;2023-11-21T08:44:03;3.10;;;2.90;;
6292;SDS011;3179;54.350;10.102;2023-11-21T08:46:31;2.77;;;2.57;;
6292;SDS011;3179;54.350;10.102;2023-11-21T08:48:58;2.90;;;2.60;;
6292;SDS011;3179;54.350;10.102;2023-11-21T08:51:27;2.80;;;2.60;;
6292;SDS011;3179;54.350;10.102;2023-11-21T08:53:53;3.00;;;2.33;;
6292;SDS011;3179;54.350;10.102;2023-11-21T08:56:24;3.20;;;2.53;;
6292;SDS011;3179;54.350;10.102;2023-11-21T08:58:52;3.17;;;2.27;;
6292;SDS011;3179;54.350;10.102;2023-11-21T09:01:19;4.23;;;2.60;;
6292;SDS011;3179;54.350;10.102;2023-11-21T09:03:46;4.77;;;2.37;;
6292;SDS011;3179;54.350;10.102;2023-11-21T09:06:12;5.50;;;2.37;;
6292;SDS011;3179;54.350;10.102;2023-11-21T09:08:39;4.33;;;2.83;;
6292;SDS011;3179;54.350;10.102;2023-11-21T09:11:06;2.87;;;2.60;;
6292;SDS011;3179;54.350;10.102;2023-11-21T09:13:34;3.60;;;2.80;;
6292;SDS011;3179;54.350;10.102;2023-11-21T09:16:02;6.73;;;2.63;;
6292;SDS011;3179;54.350;10.102;2023-11-21T09:18:30;3.63;;;2.47;;
6292;SDS011;3179;54.350;10.102;2023-11-21T09:20:57;4.47;;;2.40;;
6292;SDS011;3179;54.350;10.102;2023-11-21T09:23:24;3.40;;;2.70;;
6292;SDS011;3179;54.350;10.102;2023-11-21T09:25:51;2.67;;;2.00;;
6292;SDS011;3179;54.350;10.102;2023-11-21T09:28:21;3.63;;;2.23;;
6292;SDS011;3179;54.350;10.102;2023-11-21T09:30:48;2.80;;;2.40;;
6292;SDS011;3179;54.350;10.102;2023-11-21T09:33:17;2.53;;;2.33;;
6292;SDS011;3179;54.350;10.102;2023-11-21T09:35:44;4.83;;;2.50;;
6292;SDS011;3179;54.350;10.102;2023-11-21T09:38:11;2.40;;;2.20;;
6292;SDS011;3179;54.350;10.102;2023-11-21T09:40:38;3.50;;;2.60;;
6292;SDS011;3179;54.350;10.102;2023-11-21T09:43:05;2.30;;;2.10;;
6292;SDS011;3179;54.350;10.102;2023-11-21T09:45:34;2.80;;;2.23;;
6292;SDS011;3179;54.350;10.102;2023-11-21T09:48:02;2.53;;;2.27;;
6292;SDS011;3179;54.350;10.102;2023-11-21T09:50:31;3.70;;;2.43;;
6292;SDS011;3179;54.350;10.102;2023-11-21T09:53:03;2.80;;;2.07;;
6292;SDS011;3179;54.350;10.102;2023-11-21T09:55:36;2.93;;;2.73;;
6292;SDS011;3179;54.350;10.102;2023-11-21T09:58:05;2.23;;;2.13;;
6292;SDS011;3179;54.350;10.102;2023-11-21T10:00:36;3.53;;;1.93;;
6292;SDS011;3179;54.350;10.102;2023-11-21T10:03:05;2.17;;;2.00;;
6292;SDS011;3179;54.350;10.102;2023-11-21T10:05:34;3.00;;;2.30;;
6292;SDS011;3179;54.350;10.102;2023-11-21T10:08:01;3.90;;;1.97;;
6292;SDS011;3179;54.350;10.102;2023-11-21T10:10:32;1.90;;;1.80;;
6292;SDS011;3179;54.350;10.102;2023-11-21T10:13:01;2.37;;;1.50;;
6292;SDS011;3179;54.350;10.102;2023-11-21T10:15:31;2.00;;;1.90;;
6292;SDS011;3179;54.350;10.102;2023-11-21T10:18:01;3.00;;;2.00;;
6292;SDS011;3179;54.350;10.102;2023-11-21T10:20:29;7.60;;;2.17;;
6292;SDS011;3179;54.350;10.102;2023-11-21T10:23:00;3.20;;;2.27;;
6292;SDS011;3179;54.350;10.102;2023-11-21T10:25:28;2.50;;;2.30;;
6292;SDS011;3179;54.350;10.102;2023-11-21T10:27:57;8.80;;;2.70;;
6292;SDS011;3179;54.350;10.102;2023-11-21T10:30:27;3.63;;;2.60;;
6292;SDS011;3179;54.350;10.102;2023-11-21T10:32:58;3.10;;;2.00;;
6292;SDS011;3179;54.350;10.102;2023-11-21T10:35:26;2.00;;;1.83;;
6292;SDS011;3179;54.350;10.102;2023-11-21T10:38:06;3.40;;;2.40;;
6292;SDS011;3179;54.350;10.102;2023-11-21T10:40:37;3.20;;;2.70;;
6292;SDS011;3179;54.350;10.102;2023-11-21T10:43:06;2.20;;;2.00;;
6292;SDS011;3179;54.350;10.102;2023-11-21T10:45:34;2.50;;;2.30;;
6292;SDS011;3179;54.350;10.102;2023-11-21T10:48:04;2.13;;;1.97;;
6292;SDS011;3179;54.350;10.102;2023-11-21T10:50:33;2.60;;;1.90;;
6292;SDS011;3179;54.350;10.102;2023-11-21T10:53:04;2.43;;;2.07;;
6292;SDS011;3179;54.350;10.102;2023-11-21T10:55:42;3.40;;;2.03;;
6292;SDS011;3179;54.350;10.102;2023-11-21T10:58:21;2.10;;;1.93;;
6292;SDS011;3179;54.350;10.102;2023-11-21T11:00:48;2.67;;;2.17;;
6292;SDS011;3179;54.350;10.102;2023-11-21T11:03:18;2.27;;;2.07;;
6292;SDS011;3179;54.350;10.102;2023-11-21T11:05:48;3.57;;;1.87;;
6292;SDS011;3179;54.350;10.102;2023-11-21T11:08:17;2.00;;;1.90;;
6292;SDS011;3179;54.350;10.102;2023-11-21T11:10:52;1.90;;;1.80;;
6292;SDS011;3179;54.350;10.102;2023-11-21T11:13:20;2.70;;;1.87;;
6292;SDS011;3179;54.350;10.102;2023-11-21T11:15:48;1.77;;;1.67;;
6292;SDS011;3179;54.350;10.102;2023-11-21T11:18:15;2.73;;;1.90;;
6292;SDS011;3179;54.350;10.102;2023-11-21T11:20:42;2.40;;;1.70;;
6292;SDS011;3179;54.350;10.102;2023-11-21T11:23:14;3.43;;;2.23;;
6292;SDS011;3179;54.350;10.102;2023-11-21T11:26:16;2.90;;;2.00;;
6292;SDS011;3179;54.350;10.102;2023-11-21T11:28:52;1.93;;;1.83;;
6292;SDS011;3179;54.350;10.102;2023-11-21T11:31:31;2.17;;;2.07;;
6292;SDS011;3179;54.350;10.102;2023-11-21T11:34:07;3.40;;;2.17;;
6292;SDS011;3179;54.350;10.102;2023-11-21T11:36:43;2.13;;;1.93;;
6292;SDS011;3179;54.350;10.102;2023-11-21T11:39:26;3.80;;;2.30;;
6292;SDS011;3179;54.350;10.102;2023-11-21T11:41:55;2.20;;;2.00;;
6292;SDS011;3179;54.350;10.102;2023-11-21T11:47:19;3.33;;;2.50;;
6292;SDS011;3179;54.350;10.102;2023-11-21T11:50:00;2.23;;;2.00;;
6292;SDS011;3179;54.350;10.102;2023-11-21T11:52:32;2.47;;;2.23;;
6292;SDS011;3179;54.350;10.102;2023-11-21T11:55:00;3.30;;;1.90;;
6292;SDS011;3179;54.350;10.102;2023-11-21T11:57:30;3.53;;;1.97;;
6292;SDS011;3179;54.350;10.102;2023-11-21T12:00:15;3.77;;;1.90;;
6292;SDS011;3179;54.350;10.102;2023-11-21T12:02:45;3.57;;;2.10;;
6292;SDS011;3179;54.350;10.102;2023-11-21T12:05:13;3.03;;;2.30;;
6292;SDS011;3179;54.350;10.102;2023-11-21T12:07:42;4.27;;;2.40;;
6292;SDS011;3179;54.350;10.102;2023-11-21T12:10:17;3.93;;;2.57;;
6292;SDS011;3179;54.350;10.102;2023-11-21T12:12:47;3.03;;;2.70;;
6292;SDS011;3179;54.350;10.102;2023-11-21T12:15:14;2.90;;;2.37;;
6292;SDS011;3179;54.350;10.102;2023-11-21T12:17:42;2.10;;;2.00;;
6292;SDS011;3179;54.350;10.102;2023-11-21T12:20:10;3.70;;;2.57;;
6292;SDS011;3179;54.350;10.102;2023-11-21T12:22:44;3.83;;;2.57;;
6292;SDS011;3179;54.350;10.102;2023-11-21T12:25:14;3.10;;;2.63;;
6292;SDS011;3179;54.350;10.102;2023-11-21T12:27:43;3.83;;;2.70;;
6292;SDS011;3179;54.350;10.102;2023-11-21T12:30:13;1.93;;;1.80;;
6292;SDS011;3179;54.350;10.102;2023-11-21T12:32:40;2.60;;;2.40;;
6292;SDS011;3179;54.350;10.102;2023-11-21T12:35:08;2.33;;;2.13;;
6292;SDS011;3179;54.350;10.102;2023-11-21T12:37:36;1.93;;;1.83;;
6292;SDS011;3179;54.350;10.102;2023-11-21T12:40:03;4.30;;;2.20;;
6292;SDS011;3179;54.350;10.102;2023-11-21T12:42:32;3.70;;;2.50;;
6292;SDS011;3179;54.350;10.102;2023-11-21T12:45:09;3.03;;;2.07;;
6292;SDS011;3179;54.350;10.102;2023-11-21T12:47:46;3.30;;;2.50;;
6292;SDS011;3179;54.350;10.102;2023-11-21T12:50:15;2.60;;;2.20;;
6292;SDS011;3179;54.350;10.102;2023-11-21T12:52:46;3.87;;;2.30;;
6292;SDS011;3179;54.350;10.102;2023-11-21T12:55:14;1.93;;;1.83;;
6292;SDS011;3179;54.350;10.102;2023-11-21T12:57:42;4.13;;;2.20;;
6292;SDS011;3179;54.350;10.102;2023-11-21T13:00:11;1.90;;;1.80;;
6292;SDS011;3179;54.350;10.102;2023-11-21T13:02:53;3.03;;;2.50;;
6292;SDS011;3179;54.350;10.102;2023-11-21T13:05:25;2.20;;;1.87;;
6292;SDS011;3179;54.350;10.102;2023-11-21T13:07:53;4.07;;;2.30;;
6292;SDS011;3179;54.350;10.102;2023-11-21T13:10:22;3.50;;;2.57;;
6292;SDS011;3179;54.350;10.102;2023-11-21T13:12:51;2.73;;;2.20;;
6292;SDS011;3179;54.350;10.102;2023-11-21T13:15:18;4.00;;;2.23;;
6292;SDS011;3179;54.350;10.102;2023-11-21T13:17:46;3.60;;;2.10;;
6292;SDS011;3179;54.350;10.102;2023-11-21T13:20:15;3.90;;;2.50;;
6292;SDS011;3179;54.350;10.102;2023-11-21T13:22:46;3.40;;;2.30;;
6292;SDS011;3179;54.350;10.102;2023-11-21T13:25:14;2.53;;;2.33;;
6292;SDS011;3179;54.350;10.102;2023-11-21T13:27:42;2.50;;;1.70;;
6292;SDS011;3179;54.350;10.102;2023-11-21T13:30:11;3.37;;;2.37;;
6292;SDS011;3179;54.350;10.102;2023-11-21T13:32:40;1.90;;;1.80;;
6292;SDS011;3179;54.350;10.102;2023-11-21T13:35:07;5.03;;;2.10;;
6292;SDS011;3179;54.350;10.102;2023-11-21T13:37:41;2.30;;;1.90;;
6292;SDS011;3179;54.350;10.102;2023-11-21T13:40:10;3.30;;;2.37;;
6292;SDS011;3179;54.350;10.102;2023-11-21T13:42:40;4.30;;;2.17;;
6292;SDS011;3179;54.350;10.102;2023-11-21T13:45:08;4.33;;;2.10;;
6292;SDS011;3179;54.350;10.102;2023-11-21T13:47:38;6.20;;;2.40;;
6292;SDS011;3179;54.350;10.102;2023-11-21T13:50:12;2.10;;;1.90;;
6292;SDS011;3179;54.350;10.102;2023-11-21T13:52:48;2.83;;;2.27;;
6292;SDS011;3179;54.350;10.102;2023-11-21T13:55:18;3.63;;;2.40;;
6292;SDS011;3179;54.350;10.102;2023-11-21T13:57:45;3.47;;;2.00;;
6292;SDS011;3179;54.350;10.102;2023-11-21T14:00:15;2.63;;;2.10;;
6292;SDS011;3179;54.350;10.102;2023-11-21T14:03:11;2.30;;;2.10;;
6292;SDS011;3179;54.350;10.102;2023-11-21T14:05:45;3.43;;;2.10;;
6292;SDS011;3179;54.350;10.102;2023-11-21T14:08:16;2.83;;;1.93;;
6292;SDS011;3179;54.350;10.102;2023-11-21T14:10:45;5.43;;;2.13;;
6292;SDS011;3179;54.350;10.102;2023-11-21T14:13:15;4.07;;;2.37;;
6292;SDS011;3179;54.350;10.102;2023-11-21T14:15:43;2.97;;;1.90;;
6292;SDS011;3179;54.350;10.102;2023-11-21T14:18:12;2.10;;;1.77;;
6292;SDS011;3179;54.350;10.102;2023-11-21T14:20:42;2.87;;;1.90;;
6292;SDS011;3179;54.350;10.102;2023-11-21T14:23:09;2.73;;;2.40;;
6292;SDS011;3179;54.350;10.102;2023-11-21T14:25:37;2.90;;;1.60;;
6292;SDS011;3179;54.350;10.102;2023-11-21T14:28:04;2.63;;;1.70;;
6292;SDS011;3179;54.350;10.102;2023-11-21T14:30:31;3.30;;;2.00;;
6292;SDS011;3179;54.350;10.102;2023-11-21T14:33:00;2.50;;;2.07;;
6292;SDS011;3179;54.350;10.102;2023-11-21T14:35:29;3.80;;;2.23;;
6292;SDS011;3179;54.350;10.102;2023-11-21T14:37:57;2.27;;;2.07;;
6292;SDS011;3179;54.350;10.102;2023-11-21T14:40:25;2.43;;;2.23;;
6292;SDS011;3179;54.350;10.102;2023-11-21T14:42:58;2.70;;;2.20;;
6292;SDS011;3179;54.350;10.102;2023-11-21T14:45:24;4.90;;;2.10;;
6292;SDS011;3179;54.350;10.102;2023-11-21T14:47:52;2.30;;;2.10;;
6292;SDS011;3179;54.350;10.102;2023-11-21T14:50:32;4.90;;;2.70;;
6292;SDS011;3179;54.350;10.102;2023-11-21T14:53:13;2.60;;;1.90;;
6292;SDS011;3179;54.350;10.102;2023-11-21T14:55:40;3.43;;;2.33;;
6292;SDS011;3179;54.350;10.102;2023-11-21T14:58:19;2.40;;;1.70;;
6292;SDS011;3179;54.350;10.102;2023-11-21T15:00:51;1.90;;;1.80;;
6292;SDS011;3179;54.350;10.102;2023-11-21T15:03:22;2.63;;;2.00;;
6292;SDS011;3179;54.350;10.102;2023-11-21T15:06:09;1.80;;;1.67;;
6292;SDS011;3179;54.350;10.102;2023-11-21T15:08:53;3.27;;;2.17;;
6292;SDS011;3179;54.350;10.102;2023-11-21T15:11:41;2.73;;;1.90;;